createdAt,value
2022-09-26T00:01:44.013Z,100.00
2022-09-26T00:04:23.632Z,100.00
2022-09-26T00:06:55.398Z,100.00
2022-09-26T00:09:26.169Z,100.00
2022-09-26T00:11:55.402Z,100.00
2022-09-26T00:14:29.768Z,100.00
2022-09-26T00:16:58.872Z,100.00
2022-09-26T00:19:27.698Z,100.00
2022-09-26T00:21:56.225Z,100.00
2022-09-26T00:24:24.697Z,100.00
2022-09-26T00:26:53.518Z,100.00
2022-09-26T00:29:22.037Z,100.00
2022-09-26T00:31:50.576Z,100.00
2022-09-26T00:34:20.665Z,100.00
2022-09-26T00:36:49.245Z,100.00
2022-09-26T00:39:18.297Z,100.00
2022-09-26T00:41:47.207Z,100.00
2022-09-26T00:44:44.227Z,100.00
2022-09-26T00:47:43.096Z,100.00
2022-09-26T00:50:23.508Z,100.00
2022-09-26T00:53:04.079Z,100.00
2022-09-26T00:55:37.349Z,100.00
2022-09-26T00:58:14.126Z,100.00
2022-09-26T01:00:45.403Z,100.00
2022-09-26T01:03:14.686Z,100.00
2022-09-26T01:05:44.065Z,100.00
2022-09-26T01:08:14.623Z,100.00
2022-09-26T01:10:43.524Z,100.00
2022-09-26T01:13:12.564Z,100.00
2022-09-26T01:15:41.114Z,100.00
2022-09-26T01:18:09.803Z,100.00
2022-09-26T01:21:14.053Z,100.00
2022-09-26T01:23:53.769Z,100.00
2022-09-26T01:26:58.522Z,100.00
2022-09-26T01:29:45.609Z,100.00
2022-09-26T01:32:37.955Z,100.00
2022-09-26T01:35:25.967Z,100.00
2022-09-26T01:38:21.666Z,100.00
2022-09-26T01:41:45.481Z,100.00
2022-09-26T01:44:47.978Z,100.00
2022-09-26T01:47:22.866Z,100.00
2022-09-26T01:49:57.082Z,100.00
2022-09-26T01:52:47.094Z,100.00
2022-09-26T01:55:54.563Z,100.00
2022-09-26T01:58:32.398Z,100.00
2022-09-26T02:01:05.496Z,100.00
2022-09-26T02:03:39.527Z,100.00
2022-09-26T02:06:14.634Z,100.00
2022-09-26T02:33:06.739Z,99.89
2022-09-26T02:35:53.444Z,96.90
2022-09-26T02:38:24.177Z,100.00
2022-09-26T02:40:57.662Z,100.00
2022-09-26T02:43:50.577Z,98.21
2022-09-26T02:46:39.399Z,95.96
2022-09-26T02:49:10.651Z,95.49
2022-09-26T02:52:10.590Z,95.74
2022-09-26T02:55:05.000Z,96.02
2022-09-26T02:57:53.495Z,94.66
2022-09-26T03:00:31.215Z,95.20
2022-09-26T03:03:09.053Z,96.09
2022-09-26T03:05:42.994Z,96.92
2022-09-26T03:08:18.927Z,97.63
2022-09-26T03:10:50.487Z,95.75
2022-09-26T03:13:21.389Z,93.64
2022-09-26T03:15:54.983Z,98.04
2022-09-26T03:18:33.749Z,96.06
2022-09-26T03:21:12.458Z,96.11
2022-09-26T03:23:41.472Z,96.50
2022-09-26T03:26:21.655Z,95.57
2022-09-26T03:29:00.498Z,96.43
2022-09-26T03:31:30.547Z,90.75
2022-09-26T03:34:14.525Z,94.03
2022-09-26T03:36:43.534Z,95.42
2022-09-26T03:39:17.668Z,95.35
2022-09-26T03:41:55.572Z,96.95
2022-09-26T03:44:24.414Z,95.30
2022-09-26T03:46:53.530Z,95.36
2022-09-26T03:49:22.285Z,92.88
2022-09-26T03:51:50.888Z,95.09
2022-09-26T03:54:19.331Z,93.87
2022-09-26T03:56:47.756Z,97.11
2022-09-26T03:59:16.258Z,94.04
2022-09-26T04:01:45.378Z,94.35
2022-09-26T04:04:17.365Z,91.17
2022-09-26T04:06:45.909Z,92.07
2022-09-26T04:09:17.082Z,91.74
2022-09-26T04:11:46.406Z,91.48
2022-09-26T04:14:14.857Z,90.33
2022-09-26T04:16:43.473Z,92.97
2022-09-26T04:19:13.242Z,93.23
2022-09-26T04:21:43.068Z,90.56
2022-09-26T04:24:17.002Z,89.06
2022-09-26T04:26:46.594Z,87.79
2022-09-26T04:29:16.298Z,90.26
2022-09-26T04:31:45.204Z,91.58
2022-09-26T04:34:15.924Z,91.81
2022-09-26T04:36:44.816Z,90.85
2022-09-26T04:39:13.465Z,92.65
2022-09-26T04:41:42.345Z,96.00
2022-09-26T04:44:14.067Z,92.97
2022-09-26T04:46:42.551Z,90.10
2022-09-26T04:49:12.218Z,90.15
2022-09-26T04:51:40.742Z,90.12
2022-09-26T04:54:09.676Z,90.08
2022-09-26T04:56:38.244Z,90.72
2022-09-26T04:59:06.929Z,89.83
2022-09-26T05:01:35.570Z,92.03
2022-09-26T05:04:05.157Z,90.06
2022-09-26T05:06:33.631Z,90.08
2022-09-26T05:09:02.295Z,89.99
2022-09-26T05:11:30.779Z,89.57
2022-09-26T05:13:59.413Z,87.82
2022-09-26T05:16:29.250Z,89.81
2022-09-26T05:18:57.969Z,91.15
2022-09-26T05:21:26.465Z,92.02
2022-09-26T05:24:13.272Z,90.46
2022-09-26T05:26:48.779Z,89.45
2022-09-26T05:29:18.453Z,88.43
2022-09-26T05:31:47.598Z,90.53
2022-09-26T05:34:19.860Z,88.41
2022-09-26T05:36:49.120Z,89.26
2022-09-26T05:39:39.058Z,89.77
2022-09-26T05:42:10.735Z,89.37
2022-09-26T05:44:40.799Z,87.80
2022-09-26T05:47:10.109Z,88.17
2022-09-26T05:49:38.790Z,82.38
2022-09-26T05:52:07.410Z,88.20
2022-09-26T05:54:35.876Z,87.92
2022-09-26T05:57:04.438Z,88.29
2022-09-26T05:59:32.896Z,86.30
2022-09-26T06:02:01.732Z,87.35
2022-09-26T06:04:35.276Z,87.63
2022-09-26T06:09:45.698Z,87.10
2022-09-26T06:12:19.259Z,85.29
2022-09-26T06:14:49.582Z,84.37
2022-09-26T06:17:18.149Z,85.56
2022-09-26T06:19:46.761Z,86.84
2022-09-26T06:22:15.258Z,86.59
2022-09-26T06:24:43.718Z,85.04
2022-09-26T06:27:12.195Z,89.95
2022-09-26T06:29:40.716Z,85.05
2022-09-26T06:32:09.353Z,84.20
2022-09-26T06:34:38.045Z,84.34
2022-09-26T06:37:06.579Z,83.67
2022-09-26T06:39:38.100Z,86.50
2022-09-26T06:42:09.654Z,82.62
2022-09-26T06:44:38.156Z,88.88
2022-09-26T06:47:06.697Z,86.08
2022-09-26T06:49:35.985Z,84.97
2022-09-26T06:52:04.618Z,84.45
2022-09-26T06:54:33.043Z,82.60
2022-09-26T06:57:01.560Z,83.00
2022-09-26T06:59:30.030Z,86.75
2022-09-26T07:01:58.637Z,83.39
2022-09-26T07:04:28.548Z,82.17
2022-09-26T07:06:58.344Z,92.58
2022-09-26T07:09:26.929Z,91.25
2022-09-26T07:14:44.751Z,86.87
2022-09-26T07:17:16.975Z,87.16
2022-09-26T07:19:46.067Z,88.88
2022-09-26T07:22:16.701Z,87.77
2022-09-26T07:24:47.274Z,85.16
2022-09-26T07:27:16.648Z,83.98
2022-09-26T07:29:48.391Z,91.49
2022-09-26T07:32:16.882Z,83.58
2022-09-26T07:34:45.499Z,83.30
2022-09-26T07:37:14.073Z,87.13
2022-09-26T07:39:42.714Z,87.05
2022-09-26T07:42:11.199Z,90.93
2022-09-26T07:45:20.606Z,89.32
2022-09-26T07:47:52.498Z,86.25
2022-09-26T07:50:21.282Z,81.38
2022-09-26T07:52:51.483Z,81.67
2022-09-26T07:55:23.412Z,87.60
2022-09-26T07:57:52.147Z,85.30
2022-09-26T08:00:22.536Z,84.10
2022-09-26T08:02:51.857Z,86.68
2022-09-26T08:05:23.095Z,86.48
2022-09-26T08:07:52.160Z,80.46
2022-09-26T08:10:24.434Z,87.03
2022-09-26T08:12:52.895Z,81.34
2022-09-26T08:15:21.520Z,86.68
2022-09-26T08:17:50.003Z,84.89
2022-09-26T08:20:18.591Z,80.84
2022-09-26T08:22:47.202Z,83.60
2022-09-26T08:25:15.727Z,84.75
2022-09-26T08:27:44.763Z,82.63
2022-09-26T08:30:13.953Z,83.93
2022-09-26T08:32:42.844Z,83.91
2022-09-26T08:35:15.971Z,84.63
2022-09-26T08:37:44.561Z,84.62
2022-09-26T08:40:13.804Z,82.64
2022-09-26T08:43:05.318Z,86.62
2022-09-26T08:46:02.329Z,85.42
2022-09-26T08:48:49.613Z,85.34
2022-09-26T08:51:31.308Z,84.30
2022-09-26T08:54:29.197Z,84.20
2022-09-26T08:57:03.591Z,85.16
2022-09-26T08:59:37.292Z,88.06
2022-09-26T09:02:33.988Z,90.30
2022-09-26T09:05:13.202Z,92.31
2022-09-26T09:07:42.231Z,91.76
2022-09-26T09:10:19.034Z,92.20
2022-09-26T09:13:15.950Z,93.16
2022-09-26T09:16:08.596Z,93.76
2022-09-26T09:18:55.491Z,94.66
2022-09-26T09:21:45.211Z,94.50
2022-09-26T09:24:25.958Z,94.95
2022-09-26T09:30:19.634Z,96.20
2022-09-26T09:33:20.284Z,96.65
2022-09-26T09:35:56.858Z,97.50
2022-09-26T09:38:30.327Z,98.07
2022-09-26T09:41:07.769Z,97.55
2022-09-26T09:43:43.073Z,97.87
2022-09-26T09:46:33.492Z,98.26
2022-09-26T09:49:11.095Z,99.10
2022-09-26T09:52:03.877Z,99.40
2022-09-26T09:55:10.951Z,99.99
2022-09-26T09:57:47.983Z,100.00
2022-09-26T10:00:23.455Z,100.00
2022-09-26T10:03:13.794Z,100.00
2022-09-26T10:05:48.435Z,100.00
2022-09-26T10:08:34.920Z,100.00
2022-09-26T10:11:23.362Z,100.00
2022-09-26T10:13:57.934Z,100.00
2022-09-26T10:16:27.785Z,100.00
2022-09-26T10:19:05.136Z,100.00
2022-09-26T10:21:40.417Z,100.00
2022-09-26T10:24:28.520Z,100.00
2022-09-26T10:26:57.035Z,100.00
2022-09-26T10:29:36.192Z,100.00
2022-09-26T10:32:05.846Z,100.00
2022-09-26T10:34:36.628Z,100.00
2022-09-26T10:37:24.457Z,100.00
2022-09-26T10:40:16.350Z,100.00
2022-09-26T10:42:48.128Z,100.00
2022-09-26T10:45:28.185Z,100.00
2022-09-26T10:48:03.341Z,100.00
2022-09-26T10:50:41.575Z,100.00
2022-09-26T10:56:07.387Z,100.00
2022-09-26T10:58:50.072Z,100.00
2022-09-26T11:01:24.350Z,100.00
2022-09-26T11:03:53.644Z,100.00
2022-09-26T11:06:37.097Z,100.00
2022-09-26T11:09:06.908Z,100.00
2022-09-26T11:11:40.189Z,100.00
2022-09-26T11:14:09.857Z,100.00
2022-09-26T11:16:57.986Z,100.00
2022-09-26T11:19:29.209Z,100.00
2022-09-26T11:22:08.218Z,100.00
2022-09-26T11:25:00.399Z,100.00
2022-09-26T11:28:12.565Z,100.00
2022-09-26T11:30:48.943Z,100.00
2022-09-26T11:33:20.755Z,100.00
2022-09-26T11:36:12.016Z,100.00
2022-09-26T11:38:48.205Z,100.00
2022-09-26T11:41:44.916Z,100.00
2022-09-26T11:44:22.354Z,100.00
2022-09-26T11:47:09.258Z,100.00
2022-09-26T11:50:03.899Z,100.00
2022-09-26T11:52:50.503Z,100.00
2022-09-26T11:55:18.952Z,100.00
2022-09-26T11:58:15.848Z,100.00
2022-09-26T12:00:58.976Z,100.00
2022-09-26T12:03:39.322Z,100.00
2022-09-26T12:06:21.628Z,100.00
2022-09-26T12:09:15.299Z,100.00
2022-09-26T12:12:02.014Z,100.00
2022-09-26T12:14:48.490Z,100.00
2022-09-26T12:17:47.848Z,100.00
2022-09-26T12:20:34.193Z,100.00
2022-09-26T12:23:23.180Z,100.00
2022-09-26T12:26:18.996Z,100.00
2022-09-26T12:28:59.194Z,100.00
2022-09-26T12:31:57.102Z,100.00
2022-09-26T12:34:34.493Z,100.00
2022-09-26T12:37:07.523Z,100.00
2022-09-26T12:40:00.787Z,100.00
2022-09-26T12:42:49.668Z,100.00
2022-09-26T12:46:08.749Z,100.00
2022-09-26T12:49:14.043Z,100.00
2022-09-26T12:51:56.789Z,100.00
2022-09-26T12:54:34.088Z,100.00
2022-09-26T12:57:18.354Z,100.00
2022-09-26T13:00:12.015Z,100.00
2022-09-26T13:03:22.230Z,100.00
2022-09-26T13:06:16.989Z,100.00
2022-09-26T13:09:16.988Z,100.00
2022-09-26T13:11:54.385Z,100.00
2022-09-26T13:14:43.301Z,100.00
2022-09-26T13:17:16.990Z,100.00
2022-09-26T13:19:45.665Z,100.00
2022-09-26T13:22:36.036Z,100.00
2022-09-26T13:25:16.088Z,100.00
2022-09-26T13:27:52.365Z,100.00
2022-09-26T13:30:25.656Z,100.00
2022-09-26T13:33:21.822Z,100.00
2022-09-26T13:35:54.438Z,100.00
2022-09-26T13:39:04.521Z,100.00
2022-09-26T13:41:35.626Z,100.00
2022-09-26T13:44:29.357Z,100.00
2022-09-26T13:47:14.680Z,100.00
2022-09-26T13:49:52.060Z,100.00
2022-09-26T13:52:28.770Z,100.00
2022-09-26T13:55:21.092Z,100.00
2022-09-26T13:58:05.017Z,100.00
2022-09-26T14:00:39.308Z,100.00
2022-09-26T14:03:10.860Z,100.00
2022-09-26T14:05:45.431Z,100.00
2022-09-26T14:08:44.738Z,100.00
2022-09-26T14:11:36.321Z,100.00
2022-09-26T14:14:20.327Z,100.00
2022-09-26T14:16:55.488Z,100.00
2022-09-26T14:19:42.582Z,100.00
2022-09-26T14:22:21.565Z,100.00
2022-09-26T14:24:51.325Z,100.00
2022-09-26T14:27:19.728Z,100.00
2022-09-26T14:30:14.530Z,100.00
2022-09-26T14:32:47.910Z,100.00
2022-09-26T14:35:40.063Z,100.00
2022-09-26T14:38:18.801Z,100.00
2022-09-26T14:41:00.648Z,100.00
2022-09-26T14:43:31.342Z,100.00
2022-09-26T14:46:06.492Z,100.00
2022-09-26T14:48:41.385Z,100.00
2022-09-26T14:51:13.414Z,100.00
2022-09-26T14:53:50.173Z,100.00
2022-09-26T14:56:36.258Z,100.00
2022-09-26T14:59:26.532Z,100.00
2022-09-26T15:02:16.312Z,100.00
2022-09-26T15:04:48.617Z,100.00
2022-09-26T15:07:23.618Z,100.00
2022-09-26T15:10:10.893Z,100.00
2022-09-26T15:12:45.292Z,100.00
2022-09-26T15:15:23.342Z,100.00
2022-09-26T15:17:57.562Z,100.00
2022-09-26T15:20:37.530Z,100.00
2022-09-26T15:23:22.747Z,100.00
2022-09-26T15:25:55.009Z,100.00
2022-09-26T15:28:25.751Z,100.00
2022-09-26T15:31:26.394Z,100.00
2022-09-26T15:34:21.870Z,100.00
2022-09-26T15:37:01.376Z,100.00
2022-09-26T15:39:33.048Z,100.00
2022-09-26T15:42:41.043Z,100.00
2022-09-26T15:45:34.725Z,100.00
2022-09-26T15:48:25.527Z,100.00
2022-09-26T15:51:18.708Z,100.00
2022-09-26T15:53:51.429Z,100.00
2022-09-26T15:56:46.879Z,100.00
2022-09-26T15:59:41.155Z,100.00
2022-09-26T16:02:33.737Z,100.00
2022-09-26T16:05:02.356Z,100.00
2022-09-26T16:07:34.507Z,100.00
2022-09-26T16:10:07.243Z,100.00
2022-09-26T16:12:42.900Z,100.00
2022-09-26T16:15:21.862Z,100.00
2022-09-26T16:17:55.999Z,100.00
2022-09-26T16:20:33.129Z,100.00
2022-09-26T16:23:05.495Z,100.00
2022-09-26T16:25:48.919Z,100.00
2022-09-26T16:28:18.744Z,100.00
2022-09-26T16:31:01.004Z,100.00
2022-09-26T16:33:34.771Z,100.00
2022-09-26T16:36:24.703Z,100.00
2022-09-26T16:39:03.092Z,100.00
2022-09-26T16:42:01.600Z,100.00
2022-09-26T16:44:37.257Z,100.00
2022-09-26T16:47:28.292Z,100.00
2022-09-26T16:49:57.048Z,100.00
2022-09-26T16:52:30.148Z,100.00
2022-09-26T16:55:01.556Z,100.00
2022-09-26T16:57:42.029Z,100.00
2022-09-26T17:00:40.696Z,100.00
2022-09-26T17:03:25.929Z,100.00
2022-09-26T17:05:58.955Z,100.00
2022-09-26T17:08:29.777Z,100.00
2022-09-26T17:11:02.911Z,100.00
2022-09-26T17:13:35.140Z,100.00
2022-09-26T17:16:04.612Z,100.00
2022-09-26T17:18:34.128Z,100.00
2022-09-26T17:21:03.454Z,100.00
2022-09-26T17:23:40.601Z,100.00
2022-09-26T17:26:19.227Z,100.00
2022-09-26T17:28:48.083Z,100.00
2022-09-26T17:31:22.402Z,100.00
2022-09-26T17:33:54.317Z,100.00
2022-09-26T17:36:29.849Z,100.00
2022-09-26T17:39:03.437Z,100.00
2022-09-26T17:41:35.421Z,100.00
2022-09-26T17:44:03.844Z,100.00
2022-09-26T17:46:32.622Z,100.00
2022-09-26T17:49:06.119Z,100.00
2022-09-26T17:51:35.402Z,100.00
2022-09-26T17:54:08.002Z,100.00
2022-09-26T17:56:36.653Z,100.00
2022-09-26T17:59:12.980Z,100.00
2022-09-26T18:01:41.713Z,100.00
2022-09-26T18:04:14.062Z,100.00
2022-09-26T18:06:43.987Z,100.00
2022-09-26T18:09:17.458Z,100.00
2022-09-26T18:11:55.377Z,100.00
2022-09-26T18:14:24.472Z,100.00
2022-09-26T18:16:53.216Z,100.00
2022-09-26T18:19:22.181Z,100.00
2022-09-26T18:21:55.724Z,100.00
2022-09-26T18:24:28.703Z,100.00
2022-09-26T18:27:04.654Z,100.00
2022-09-26T18:29:40.171Z,100.00
2022-09-26T18:32:18.360Z,100.00
2022-09-26T18:34:47.028Z,100.00
2022-09-26T18:37:15.568Z,100.00
2022-09-26T18:39:44.022Z,100.00
2022-09-26T18:42:23.432Z,100.00
2022-09-26T18:45:05.482Z,100.00
2022-09-26T18:47:44.207Z,100.00
2022-09-26T18:50:23.426Z,100.00
2022-09-26T18:52:53.169Z,100.00
2022-09-26T18:55:42.451Z,100.00
2022-09-26T18:58:33.076Z,100.00
2022-09-26T19:01:22.407Z,100.00
2022-09-26T19:03:51.064Z,100.00
2022-09-26T19:06:38.278Z,100.00
2022-09-26T19:09:13.846Z,100.00
2022-09-26T19:11:43.180Z,100.00
2022-09-26T19:14:20.428Z,100.00
2022-09-26T19:16:50.892Z,100.00
2022-09-26T19:19:20.205Z,100.00
2022-09-26T19:22:09.021Z,100.00
2022-09-26T19:24:49.400Z,100.00
2022-09-26T19:27:22.818Z,100.00
2022-09-26T19:30:12.635Z,100.00
2022-09-26T19:32:43.745Z,100.00
2022-09-26T19:35:36.695Z,100.00
2022-09-26T19:38:25.260Z,100.00
2022-09-26T19:40:54.827Z,100.00
2022-09-26T19:43:23.835Z,100.00
2022-09-26T19:45:55.764Z,100.00
2022-09-26T19:48:25.704Z,100.00
2022-09-26T19:50:54.456Z,100.00
2022-09-26T19:53:25.078Z,100.00
2022-09-26T19:55:53.942Z,100.00
2022-09-26T19:58:24.976Z,100.00
2022-09-26T20:00:56.257Z,100.00
2022-09-26T20:03:31.067Z,100.00
2022-09-26T20:05:59.742Z,100.00
2022-09-26T20:08:29.105Z,100.00
2022-09-26T20:10:58.830Z,100.00
2022-09-26T20:13:27.331Z,100.00
2022-09-26T20:15:56.866Z,100.00
2022-09-26T20:18:26.022Z,100.00
2022-09-26T20:20:59.473Z,100.00
2022-09-26T20:23:28.589Z,100.00
2022-09-26T20:25:57.759Z,100.00
2022-09-26T20:28:26.293Z,100.00
2022-09-26T20:30:59.431Z,100.00
2022-09-26T20:33:28.607Z,100.00
2022-09-26T20:36:06.148Z,100.00
2022-09-26T20:38:42.671Z,100.00
2022-09-26T20:41:18.236Z,100.00
2022-09-26T20:43:51.527Z,100.00
2022-09-26T20:46:23.236Z,100.00
2022-09-26T20:48:52.583Z,100.00
2022-09-26T20:51:25.745Z,100.00
2022-09-26T20:53:54.558Z,100.00
2022-09-26T20:56:23.147Z,100.00
2022-09-26T20:58:52.107Z,100.00
2022-09-26T21:01:22.149Z,100.00
2022-09-26T21:03:53.783Z,100.00
2022-09-26T21:06:26.214Z,100.00
2022-09-26T21:08:54.841Z,100.00
2022-09-26T21:11:25.970Z,100.00
2022-09-26T21:13:54.505Z,100.00
2022-09-26T21:16:23.682Z,100.00
2022-09-26T21:18:54.291Z,100.00
2022-09-26T21:21:31.954Z,100.00
2022-09-26T21:24:01.214Z,100.00
2022-09-26T21:26:32.300Z,100.00
2022-09-26T21:29:00.792Z,100.00
2022-09-26T21:31:37.112Z,100.00
2022-09-26T21:34:10.152Z,100.00
2022-09-26T21:36:41.135Z,100.00
2022-09-26T21:39:09.734Z,100.00
2022-09-26T21:41:38.603Z,100.00
2022-09-26T21:44:35.871Z,100.00
2022-09-26T21:47:04.405Z,100.00
2022-09-26T21:49:32.990Z,100.00
2022-09-26T21:52:46.739Z,100.00
2022-09-26T21:55:19.722Z,100.00
2022-09-26T21:57:50.444Z,100.00
2022-09-26T22:00:19.131Z,100.00
2022-09-26T22:02:47.639Z,100.00
2022-09-26T22:05:17.758Z,100.00
2022-09-26T22:07:46.390Z,100.00
2022-09-26T22:10:16.114Z,100.00
2022-09-26T22:12:45.087Z,100.00
2022-09-26T22:15:13.662Z,100.00
2022-09-26T22:17:42.247Z,100.00
2022-09-26T22:20:11.239Z,100.00
2022-09-26T22:22:40.151Z,100.00
2022-09-26T22:25:09.296Z,100.00
2022-09-26T22:27:38.202Z,100.00
2022-09-26T22:30:09.221Z,100.00
2022-09-26T22:32:37.694Z,100.00
2022-09-26T22:35:06.860Z,100.00
2022-09-26T22:37:35.323Z,100.00
2022-09-26T22:40:04.496Z,100.00
2022-09-26T22:42:33.042Z,100.00
2022-09-26T22:45:01.543Z,100.00
2022-09-26T22:47:30.089Z,100.00
2022-09-26T22:49:58.563Z,100.00
2022-09-26T22:52:27.099Z,100.00
2022-09-26T22:54:55.701Z,100.00
2022-09-26T22:57:24.403Z,100.00
2022-09-26T22:59:52.919Z,100.00
2022-09-26T23:02:21.528Z,100.00
2022-09-26T23:04:50.188Z,100.00
2022-09-26T23:07:20.939Z,100.00
2022-09-26T23:09:49.425Z,100.00
2022-09-26T23:12:18.015Z,100.00
2022-09-26T23:14:46.892Z,100.00
2022-09-26T23:17:15.604Z,100.00
2022-09-26T23:19:44.968Z,100.00
2022-09-26T23:22:14.680Z,100.00
2022-09-26T23:27:11.469Z,100.00
2022-09-26T23:29:40.168Z,100.00
2022-09-26T23:34:36.910Z,100.00
2022-09-26T23:39:33.481Z,100.00
2022-09-26T23:42:01.943Z,100.00
2022-09-26T23:44:30.557Z,100.00
2022-09-26T23:47:01.039Z,100.00
2022-09-26T23:49:29.963Z,100.00
2022-09-26T23:51:58.469Z,100.00
2022-09-26T23:54:27.031Z,100.00
2022-09-26T23:56:55.708Z,100.00
2022-09-26T23:59:24.226Z,100.00
